Time;durP1;ratioP1;P1;durP2;ratioP2;P2;SDS_P1;SDS_P2;PMS_P1;PMS_P2;Temp;Humidity;BMP_temperature;BMP_pressure;BME280_temperature;BME280_humidity;BME280_pressure;Samples;Min_cycle;Max_cycle;Signal;HPM_P1;HPM_P2
2022/06/09 00:01:41;;;;;;;1.65;1.42;;;15.30;99.90;;;;;;4967996;28;20224;-66
2022/06/09 00:04:18;;;;;;;1.88;1.10;;;15.30;99.90;;;;;;4966699;28;20296;-68
2022/06/09 00:06:58;;;;;;;1.50;1.40;;;15.30;99.90;;;;;;4966864;28;20215;-70
2022/06/09 00:09:32;;;;;;;4.63;2.55;;;15.40;99.90;;;;;;4970352;28;20286;-68
2022/06/09 00:11:59;;;;;;;1.42;1.15;;;15.40;99.90;;;;;;4971913;28;20239;-69
2022/06/09 00:14:25;;;;;;;1.50;1.40;;;15.50;99.90;;;;;;4974309;28;20187;-68
2022/06/09 00:16:50;;;;;;;1.63;1.27;;;15.10;99.90;;;;;;4967802;28;20279;-68
2022/06/09 00:19:18;;;;;;;2.40;1.30;;;15.30;99.90;;;;;;4972170;28;20973;-68
2022/06/09 00:21:43;;;;;;;1.23;1.13;;;15.30;99.90;;;;;;4973562;28;20220;-67
2022/06/09 00:24:09;;;;;;;1.30;1.20;;;15.20;99.90;;;;;;4972144;28;20227;-68
2022/06/09 00:26:35;;;;;;;1.37;1.20;;;15.30;99.90;;;;;;4972338;28;20772;-68
2022/06/09 00:29:01;;;;;;;1.50;1.03;;;15.30;99.90;;;;;;4973808;28;20212;-68
2022/06/09 00:31:27;;;;;;;1.58;1.42;;;15.30;99.90;;;;;;4969362;28;20997;-68
2022/06/09 00:33:53;;;;;;;1.30;1.20;;;15.30;99.90;;;;;;4971364;28;20275;-69
2022/06/09 00:36:19;;;;;;;1.30;1.20;;;15.50;99.90;;;;;;4972838;28;20825;-68
2022/06/09 00:38:46;;;;;;;1.13;1.00;;;15.30;99.90;;;;;;4972689;28;20663;-67
2022/06/09 00:41:12;;;;;;;1.77;1.30;;;15.20;99.90;;;;;;4971575;28;20814;-68
2022/06/09 00:43:41;;;;;;;1.65;1.17;;;15.00;99.90;;;;;;4973044;28;20274;-66
2022/06/09 00:46:15;;;;;;;0.98;0.98;;;15.30;99.90;;;;;;4971364;28;20267;-68
2022/06/09 00:49:09;;;;;;;1.70;1.00;;;15.30;99.90;;;;;;4969706;28;20199;-66
2022/06/09 00:51:36;;;;;;;1.08;0.98;;;15.30;99.90;;;;;;4968147;28;20188;-66
2022/06/09 00:54:13;;;;;;;1.27;1.17;;;15.10;99.90;;;;;;4973334;28;20267;-67
2022/06/09 00:56:50;;;;;;;2.67;1.23;;;15.40;99.90;;;;;;4972239;28;20230;-66
2022/06/09 00:59:19;;;;;;;1.60;1.50;;;15.20;99.90;;;;;;4973701;28;20220;-66
2022/06/09 01:01:45;;;;;;;1.35;1.25;;;15.20;99.90;;;;;;4967371;28;20203;-67
2022/06/09 01:04:13;;;;;;;3.17;1.40;;;15.40;99.90;;;;;;4971232;28;20200;-67
2022/06/09 01:07:02;;;;;;;1.10;1.00;;;15.40;99.90;;;;;;4973259;28;20572;-67
2022/06/09 01:09:29;;;;;;;1.10;1.00;;;15.30;99.90;;;;;;4970430;28;20222;-67
2022/06/09 01:11:56;;;;;;;1.88;0.85;;;15.30;99.90;;;;;;4972832;28;20235;-67
2022/06/09 01:14:26;;;;;;;1.73;0.73;;;15.50;99.90;;;;;;4973631;28;20604;-67
2022/06/09 01:17:22;;;;;;;1.25;0.80;;;15.30;99.90;;;;;;4972165;28;20196;-67
2022/06/09 01:19:53;;;;;;;1.70;0.75;;;15.50;99.90;;;;;;4971487;28;20298;-67
2022/06/09 01:22:46;;;;;;;1.00;0.75;;;15.50;99.90;;;;;;4972074;28;20184;-67
2022/06/09 01:25:21;;;;;;;2.35;0.90;;;15.20;99.90;;;;;;4969754;28;20658;-66
2022/06/09 01:28:02;;;;;;;1.42;0.80;;;15.20;99.90;;;;;;4970983;28;20631;-67
2022/06/09 01:30:58;;;;;;;0.82;0.70;;;15.30;99.90;;;;;;4973024;28;20207;-69
2022/06/09 01:33:36;;;;;;;1.25;0.90;;;15.00;99.90;;;;;;4971857;28;20181;-67
2022/06/09 01:36:16;;;;;;;0.85;0.85;;;15.20;99.90;;;;;;4969615;28;20284;-67
2022/06/09 01:38:46;;;;;;;0.85;0.85;;;15.20;99.90;;;;;;4972536;28;20222;-66
2022/06/09 01:41:13;;;;;;;0.63;0.60;;;14.90;99.90;;;;;;4973175;28;20219;-67
2022/06/09 01:43:39;;;;;;;1.25;0.70;;;14.90;99.90;;;;;;4975850;28;20205;-67
2022/06/09 01:46:09;;;;;;;0.80;0.75;;;14.90;99.90;;;;;;4972665;28;20298;-67
2022/06/09 01:48:36;;;;;;;1.70;1.00;;;14.80;99.90;;;;;;4972200;28;20203;-66
2022/06/09 01:51:11;;;;;;;1.67;0.95;;;14.80;99.90;;;;;;4969257;28;20195;-64
2022/06/09 01:53:55;;;;;;;2.08;1.00;;;14.80;99.90;;;;;;4969495;28;20187;-66
2022/06/09 01:56:36;;;;;;;2.25;1.10;;;14.80;99.90;;;;;;4968910;28;20212;-66
2022/06/09 01:59:05;;;;;;;1.05;0.90;;;14.90;99.90;;;;;;4961104;28;20295;-66
2022/06/09 02:01:37;;;;;;;1.20;0.80;;;14.80;99.90;;;;;;4962501;28;20336;-66
2022/06/09 02:04:07;;;;;;;1.00;0.90;;;14.60;99.90;;;;;;4966249;28;20208;-66
2022/06/09 02:06:36;;;;;;;0.75;0.75;;;14.50;99.90;;;;;;4970829;28;20599;-69
2022/06/09 02:09:03;;;;;;;1.30;0.85;;;14.60;99.90;;;;;;4965299;28;20200;-67
2022/06/09 02:11:30;;;;;;;1.75;1.10;;;14.70;99.90;;;;;;4968830;28;20188;-67
2022/06/09 02:13:57;;;;;;;1.73;1.30;;;14.90;99.90;;;;;;4972575;28;20211;-67
2022/06/09 02:16:25;;;;;;;0.90;0.80;;;14.90;99.90;;;;;;4969174;28;20633;-69
2022/06/09 02:18:54;;;;;;;1.98;1.25;;;14.80;99.90;;;;;;4969605;28;20226;-67
2022/06/09 02:21:31;;;;;;;3.17;1.20;;;14.70;99.90;;;;;;4964869;28;20604;-67
2022/06/09 02:23:57;;;;;;;2.05;1.00;;;14.80;99.90;;;;;;4970108;28;20255;-68
2022/06/09 02:26:23;;;;;;;2.57;1.10;;;14.80;99.90;;;;;;4968792;28;20673;-68
2022/06/09 02:28:50;;;;;;;2.80;1.40;;;14.50;99.90;;;;;;4971579;28;20956;-68
2022/06/09 02:31:18;;;;;;;1.77;1.00;;;14.60;99.90;;;;;;4967088;28;20184;-68
2022/06/09 02:33:44;;;;;;;2.92;1.30;;;14.50;99.90;;;;;;4967238;28;21136;-67
2022/06/09 02:36:10;;;;;;;1.70;1.17;;;14.70;99.90;;;;;;4968699;28;20230;-68
2022/06/09 02:38:35;;;;;;;1.63;1.20;;;14.50;99.90;;;;;;4971072;28;20196;-67
2022/06/09 02:41:01;;;;;;;1.60;1.30;;;14.60;99.90;;;;;;4963414;28;20451;-66
2022/06/09 02:43:27;;;;;;;2.38;1.27;;;14.70;99.90;;;;;;4968986;28;20185;-67
2022/06/09 02:45:53;;;;;;;1.43;1.33;;;14.50;99.90;;;;;;4968014;28;20565;-67
2022/06/09 02:48:20;;;;;;;1.10;0.93;;;14.50;99.90;;;;;;4966486;28;20288;-67
2022/06/09 02:50:46;;;;;;;1.65;1.55;;;14.70;99.90;;;;;;4968776;28;20192;-67
2022/06/09 02:53:13;;;;;;;1.50;1.40;;;14.70;99.90;;;;;;4966740;28;20685;-67
2022/06/09 02:55:39;;;;;;;3.08;1.38;;;14.60;99.90;;;;;;4971709;28;20185;-67
2022/06/09 02:58:05;;;;;;;1.60;1.50;;;14.70;99.90;;;;;;4973739;28;20180;-67
2022/06/09 03:00:30;;;;;;;1.50;1.25;;;14.80;99.90;;;;;;4965537;28;20239;-66
2022/06/09 03:02:59;;;;;;;1.30;1.20;;;15.10;99.90;;;;;;4969165;28;20673;-67
2022/06/09 03:05:26;;;;;;;3.00;1.50;;;15.10;99.90;;;;;;4969126;28;20207;-67
2022/06/09 03:07:52;;;;;;;1.50;1.40;;;14.50;99.90;;;;;;4963793;28;20669;-67
2022/06/09 03:10:18;;;;;;;1.30;1.20;;;14.50;99.90;;;;;;4967745;28;20218;-67
2022/06/09 03:12:44;;;;;;;2.95;1.48;;;14.90;99.90;;;;;;4970929;28;20192;-68
2022/06/09 03:15:16;;;;;;;1.70;1.30;;;14.50;99.90;;;;;;4965222;28;20198;-67
2022/06/09 03:17:42;;;;;;;1.50;1.40;;;14.70;99.90;;;;;;4965393;28;20964;-69
2022/06/09 03:20:17;;;;;;;1.77;1.60;;;14.70;99.90;;;;;;4965693;28;20233;-67
2022/06/09 03:22:43;;;;;;;2.97;1.60;;;14.70;99.90;;;;;;4969402;28;20283;-67
2022/06/09 03:25:08;;;;;;;2.37;1.70;;;14.80;99.90;;;;;;4964190;28;20287;-67
2022/06/09 03:27:34;;;;;;;2.90;1.50;;;14.90;99.90;;;;;;4970368;28;20208;-67
2022/06/09 03:30:01;;;;;;;2.60;1.30;;;14.70;99.90;;;;;;4971607;28;20590;-67
2022/06/09 03:32:28;;;;;;;2.83;1.35;;;14.80;99.90;;;;;;4964767;28;20819;-68
2022/06/09 03:34:53;;;;;;;2.67;1.50;;;14.70;99.90;;;;;;4967945;28;20239;-68
2022/06/09 03:37:19;;;;;;;3.23;1.60;;;14.70;99.90;;;;;;4969510;28;20192;-71
2022/06/09 03:39:45;;;;;;;4.03;1.50;;;14.60;99.90;;;;;;4965033;28;20239;-66
2022/06/09 03:42:11;;;;;;;2.50;1.50;;;14.90;99.90;;;;;;4970453;28;20215;-67
2022/06/09 03:44:37;;;;;;;1.73;1.30;;;14.70;99.90;;;;;;4970548;28;20514;-67
2022/06/09 03:47:03;;;;;;;2.28;1.67;;;14.80;99.90;;;;;;4967400;28;20254;-67
2022/06/09 03:49:28;;;;;;;1.93;1.43;;;15.00;99.90;;;;;;4978687;28;20203;-67
2022/06/09 03:51:54;;;;;;;1.83;1.73;;;14.70;99.90;;;;;;4970021;28;20535;-69
2022/06/09 03:54:20;;;;;;;2.93;1.70;;;15.10;99.90;;;;;;4968539;28;20806;-67
2022/06/09 03:56:45;;;;;;;1.77;1.67;;;15.10;99.90;;;;;;4971941;28;20188;-67
2022/06/09 03:59:11;;;;;;;6.63;2.00;;;15.00;99.90;;;;;;4981485;28;20216;-68
2022/06/09 04:01:37;;;;;;;2.47;1.85;;;14.80;99.90;;;;;;4968805;28;20194;-68
2022/06/09 04:04:03;;;;;;;2.28;1.63;;;14.70;99.90;;;;;;4970076;28;20204;-68
2022/06/09 04:06:29;;;;;;;4.65;2.00;;;14.80;99.90;;;;;;4978725;28;20216;-68
2022/06/09 04:08:55;;;;;;;3.63;1.90;;;14.70;99.90;;;;;;4969137;28;20247;-68
2022/06/09 04:11:22;;;;;;;2.90;1.70;;;15.10;99.90;;;;;;4974287;28;20448;-68
2022/06/09 04:13:47;;;;;;;4.05;2.20;;;14.90;99.90;;;;;;4977107;28;20183;-68
2022/06/09 04:16:19;;;;;;;3.20;1.77;;;14.90;99.90;;;;;;4971263;28;20738;-67
2022/06/09 04:18:45;;;;;;;4.50;1.50;;;15.20;99.90;;;;;;4974597;28;20212;-68
2022/06/09 04:21:11;;;;;;;3.40;2.10;;;14.90;99.90;;;;;;4976930;28;20222;-67
2022/06/09 04:23:36;;;;;;;1.93;1.80;;;15.00;99.90;;;;;;4975682;28;20436;-67
2022/06/09 04:26:02;;;;;;;2.00;1.80;;;14.90;99.90;;;;;;4970872;28;20871;-68
2022/06/09 04:28:28;;;;;;;3.20;2.20;;;15.00;99.90;;;;;;4974642;28;20756;-69
2022/06/09 04:30:54;;;;;;;2.50;2.30;;;15.30;99.90;;;;;;4973547;28;20288;-68
2022/06/09 04:33:20;;;;;;;1.93;1.83;;;15.10;99.90;;;;;;4966110;28;20548;-67
2022/06/09 04:35:45;;;;;;;1.65;1.55;;;15.10;99.90;;;;;;4974389;28;20189;-71
2022/06/09 04:38:12;;;;;;;3.60;2.20;;;14.80;99.90;;;;;;4972582;28;20199;-66
2022/06/09 04:40:41;;;;;;;3.38;2.40;;;15.00;99.90;;;;;;4968286;28;20263;-67
2022/06/09 04:43:09;;;;;;;3.00;1.63;;;14.90;99.90;;;;;;4973423;28;20188;-67
2022/06/09 04:45:36;;;;;;;3.15;2.25;;;15.20;99.90;;;;;;4969622;28;20189;-67
2022/06/09 04:48:02;;;;;;;2.88;2.17;;;15.40;99.90;;;;;;4967574;28;20577;-67
2022/06/09 04:50:28;;;;;;;3.20;2.00;;;15.30;99.90;;;;;;4975103;28;20290;-67
2022/06/09 04:52:53;;;;;;;3.83;2.30;;;15.40;99.90;;;;;;4973359;28;20315;-67
2022/06/09 04:55:19;;;;;;;2.97;2.50;;;15.00;99.90;;;;;;4969777;28;20829;-66
2022/06/09 04:57:45;;;;;;;2.07;1.60;;;15.40;99.90;;;;;;4973405;28;20185;-66
2022/06/09 05:00:13;;;;;;;2.87;1.67;;;15.10;99.90;;;;;;4970047;28;20464;-67
2022/06/09 05:02:39;;;;;;;2.30;2.10;;;15.40;99.90;;;;;;4967516;28;20195;-67
2022/06/09 05:05:05;;;;;;;4.73;2.20;;;15.40;99.90;;;;;;4963736;28;20201;-67
2022/06/09 05:07:31;;;;;;;1.85;1.75;;;15.60;99.90;;;;;;4967297;28;20487;-67
2022/06/09 05:09:57;;;;;;;4.00;2.00;;;15.40;99.90;;;;;;4971435;28;20208;-67
2022/06/09 05:12:23;;;;;;;2.27;1.60;;;15.60;99.90;;;;;;4971225;28;20443;-67
2022/06/09 05:14:51;;;;;;;3.03;2.13;;;15.20;99.90;;;;;;4971890;28;20196;-67
2022/06/09 05:17:17;;;;;;;2.47;1.88;;;15.40;99.90;;;;;;4964503;28;20201;-67
2022/06/09 05:19:43;;;;;;;2.60;2.00;;;15.40;99.90;;;;;;4971481;28;20710;-67
2022/06/09 05:22:09;;;;;;;2.17;1.97;;;15.40;99.90;;;;;;4967485;28;20258;-67
2022/06/09 05:24:34;;;;;;;2.97;2.63;;;15.30;99.90;;;;;;4965184;28;20192;-67
2022/06/09 05:27:00;;;;;;;3.53;2.97;;;15.40;99.90;;;;;;4971649;28;20205;-67
2022/06/09 05:29:25;;;;;;;4.20;1.70;;;15.20;99.90;;;;;;4970022;28;20244;-67
2022/06/09 05:31:51;;;;;;;2.43;2.00;;;15.30;99.90;;;;;;4971672;28;20194;-67
2022/06/09 05:34:17;;;;;;;2.87;1.93;;;15.50;99.90;;;;;;4972765;28;20271;-67
2022/06/09 05:36:42;;;;;;;3.43;2.70;;;15.40;99.90;;;;;;4971356;28;20196;-67
2022/06/09 05:44:54;;;;;;;3.65;2.30;;;15.80;99.90;;;;;;4971867;28;20210;-67
2022/06/09 05:47:21;;;;;;;2.90;1.77;;;15.80;99.90;;;;;;4968656;28;20354;-67
2022/06/09 05:49:51;;;;;;;2.72;1.92;;;15.90;99.90;;;;;;4969497;28;20215;-67
2022/06/09 05:52:20;;;;;;;7.28;3.03;;;15.90;99.90;;;;;;4966228;28;20191;-68
2022/06/09 05:54:46;;;;;;;2.58;1.60;;;16.00;99.90;;;;;;4966319;28;20185;-66
2022/06/09 05:57:11;;;;;;;3.17;2.13;;;16.20;99.90;;;;;;4962801;28;20296;-66
2022/06/09 05:59:37;;;;;;;2.57;1.80;;;16.20;99.90;;;;;;4970948;28;20218;-66
2022/06/09 06:02:05;;;;;;;1.85;1.52;;;16.60;99.90;;;;;;4970016;28;20191;-66
2022/06/09 06:04:32;;;;;;;4.95;2.53;;;16.60;99.90;;;;;;4970421;28;20685;-66
2022/06/09 06:06:57;;;;;;;3.40;2.28;;;16.90;99.90;;;;;;4970807;28;20745;-66
2022/06/09 06:09:23;;;;;;;3.50;2.67;;;16.80;99.90;;;;;;4970118;28;20212;-65
2022/06/09 06:11:50;;;;;;;1.70;1.43;;;16.70;99.90;;;;;;4966538;28;20184;-66
2022/06/09 06:14:16;;;;;;;2.25;1.52;;;17.00;99.90;;;;;;4960791;28;20184;-68
2022/06/09 06:16:42;;;;;;;2.90;2.20;;;17.10;99.90;;;;;;4969868;28;20199;-66
2022/06/09 06:19:12;;;;;;;2.38;1.55;;;17.10;99.90;;;;;;4971028;28;20262;-67
2022/06/09 06:21:39;;;;;;;3.55;1.67;;;17.10;99.90;;;;;;4969437;28;20180;-68
2022/06/09 06:24:05;;;;;;;4.03;2.22;;;17.30;99.90;;;;;;4966658;28;20192;-68
2022/06/09 06:26:32;;;;;;;4.47;1.92;;;17.30;99.90;;;;;;4966028;28;20224;-67
2022/06/09 06:28:58;;;;;;;3.22;1.80;;;17.40;99.90;;;;;;4969439;28;20228;-62
2022/06/09 06:31:24;;;;;;;4.73;2.17;;;17.60;99.90;;;;;;4966438;28;20223;-65
2022/06/09 06:33:49;;;;;;;2.20;1.70;;;17.70;99.90;;;;;;4969948;28;20642;-65
2022/06/09 06:36:15;;;;;;;1.80;1.70;;;17.80;99.90;;;;;;4971766;28;20192;-65
2022/06/09 06:38:41;;;;;;;2.85;2.15;;;17.90;99.90;;;;;;4970034;28;20216;-66
2022/06/09 06:41:09;;;;;;;4.77;2.30;;;18.00;99.90;;;;;;4968339;28;20617;-66
2022/06/09 06:43:35;;;;;;;2.42;1.80;;;18.10;99.90;;;;;;4970776;28;20192;-67
2022/06/09 06:46:02;;;;;;;4.22;1.50;;;18.00;99.90;;;;;;4966826;28;20212;-65
2022/06/09 06:48:28;;;;;;;3.60;1.60;;;18.10;99.90;;;;;;4967003;28;20609;-65
2022/06/09 06:50:54;;;;;;;4.00;1.30;;;17.90;99.90;;;;;;4967242;28;20719;-64
2022/06/09 06:53:19;;;;;;;4.40;2.00;;;18.20;99.90;;;;;;4967983;28;20286;-64
2022/06/09 06:55:45;;;;;;;2.53;2.30;;;18.50;99.90;;;;;;4966647;28;20646;-65
2022/06/09 06:58:11;;;;;;;5.13;2.30;;;18.90;99.90;;;;;;4972333;28;20249;-64
2022/06/09 07:00:37;;;;;;;4.17;2.30;;;18.90;99.90;;;;;;4966947;28;20208;-66
2022/06/09 07:03:03;;;;;;;3.03;1.60;;;19.00;99.90;;;;;;4964043;28;20514;-61
2022/06/09 07:05:29;;;;;;;2.40;1.60;;;19.20;99.90;;;;;;4960628;28;20447;-67
2022/06/09 07:07:56;;;;;;;3.97;1.70;;;19.70;98.40;;;;;;4968973;28;20243;-72
2022/06/09 07:10:23;;;;;;;4.70;1.50;;;20.90;96.50;;;;;;4968808;28;20215;-69
2022/06/09 07:12:48;;;;;;;3.23;1.80;;;22.50;92.00;;;;;;4965394;28;20200;-66
2022/06/09 07:15:15;;;;;;;1.63;1.40;;;23.70;89.90;;;;;;4966029;28;20452;-61
2022/06/09 07:17:42;;;;;;;3.07;2.67;;;25.00;84.70;;;;;;4963723;28;20448;-59
2022/06/09 07:20:10;;;;;;;4.10;1.60;;;25.30;80.40;;;;;;4964346;28;20840;-61
2022/06/09 07:22:36;;;;;;;2.70;1.50;;;25.80;77.20;;;;;;4961666;28;20444;-61
2022/06/09 07:25:03;;;;;;;2.50;1.30;;;26.10;76.80;;;;;;4969480;28;20446;-61
2022/06/09 07:27:29;;;;;;;3.33;1.50;;;27.00;70.30;;;;;;4969730;28;20211;-61
2022/06/09 07:29:54;;;;;;;2.83;1.47;;;28.00;69.10;;;;;;4969818;28;20465;-61
2022/06/09 07:32:21;;;;;;;2.33;1.40;;;27.90;65.00;;;;;;4959369;28;20687;-61
2022/06/09 07:34:47;;;;;;;2.30;1.20;;;28.20;65.10;;;;;;4968933;28;20283;-61
2022/06/09 07:37:13;;;;;;;2.73;1.60;;;28.20;62.00;;;;;;4969881;28;21334;-61
2022/06/09 07:39:39;;;;;;;2.33;1.30;;;28.80;59.90;;;;;;4969077;28;20351;-61
2022/06/09 07:42:05;;;;;;;4.40;1.40;;;28.40;60.60;;;;;;4972892;28;20436;-62
2022/06/09 07:44:31;;;;;;;2.60;1.23;;;27.90;59.40;;;;;;4969930;28;20673;-61
2022/06/09 07:46:57;;;;;;;4.33;1.40;;;28.40;59.60;;;;;;4960604;28;20564;-62
2022/06/09 07:49:23;;;;;;;3.20;2.43;;;29.40;57.90;;;;;;4963965;28;20602;-63
2022/06/09 07:51:48;;;;;;;2.70;1.63;;;29.60;56.00;;;;;;4967382;28;20512;-66
2022/06/09 07:54:15;;;;;;;6.13;2.10;;;29.30;56.40;;;;;;4967855;28;20190;-60
2022/06/09 07:56:40;;;;;;;1.57;1.20;;;29.30;56.70;;;;;;4964615;28;20691;-67
2022/06/09 07:59:06;;;;;;;1.53;1.10;;;29.20;55.70;;;;;;4967936;28;20481;-67
2022/06/09 08:01:33;;;;;;;2.30;1.30;;;28.00;57.20;;;;;;4965308;28;20189;-67
2022/06/09 08:03:59;;;;;;;1.70;1.40;;;28.00;57.00;;;;;;4969834;28;20566;-68
2022/06/09 08:06:24;;;;;;;5.97;1.93;;;28.50;57.70;;;;;;4967783;28;20456;-66
2022/06/09 08:08:52;;;;;;;2.03;1.20;;;29.00;57.00;;;;;;4969187;28;20657;-69
2022/06/09 08:11:18;;;;;;;3.50;1.43;;;28.30;55.90;;;;;;4965488;28;20192;-70
2022/06/09 08:13:44;;;;;;;2.10;1.50;;;26.80;58.30;;;;;;4971180;28;20423;-69
2022/06/09 08:16:10;;;;;;;2.90;1.57;;;26.50;59.80;;;;;;4967449;28;20462;-68
2022/06/09 08:18:35;;;;;;;3.30;1.80;;;26.80;58.90;;;;;;4966731;28;20897;-71
2022/06/09 08:21:02;;;;;;;2.00;1.30;;;28.30;57.90;;;;;;4963944;28;20199;-66
2022/06/09 08:23:28;;;;;;;1.60;1.20;;;28.00;56.50;;;;;;4962383;28;20764;-67
2022/06/09 08:25:56;;;;;;;2.73;1.27;;;29.10;54.30;;;;;;4965567;28;20429;-69
2022/06/09 08:28:23;;;;;;;2.60;1.10;;;28.70;54.60;;;;;;4968975;28;20480;-66
2022/06/09 08:30:51;;;;;;;1.60;1.27;;;27.80;54.90;;;;;;4965714;28;20447;-64
2022/06/09 08:33:18;;;;;;;3.47;1.77;;;26.50;57.20;;;;;;4967973;28;20758;-67
2022/06/09 08:35:44;;;;;;;2.77;1.37;;;25.90;59.40;;;;;;4969025;28;20446;-67
2022/06/09 08:38:10;;;;;;;2.40;1.10;;;26.10;59.90;;;;;;4970287;28;20438;-67
2022/06/09 08:41:01;;;;;;;4.07;1.37;;;25.90;59.80;;;;;;4969991;28;20470;-69
2022/06/09 08:43:54;;;;;;;2.67;1.80;;;25.20;61.80;;;;;;4964378;28;20471;-66
2022/06/09 08:46:46;;;;;;;6.23;3.20;;;23.90;67.20;;;;;;4965505;28;21028;-67
2022/06/09 08:49:44;;;;;;;3.20;1.87;;;23.60;69.00;;;;;;4963383;28;20812;-69
2022/06/09 08:52:40;;;;;;;2.00;1.40;;;22.90;71.30;;;;;;4971046;28;20431;-61
2022/06/09 08:55:20;;;;;;;2.17;1.15;;;22.30;70.80;;;;;;4965208;28;20490;-61
2022/06/09 08:57:47;;;;;;;11.82;1.55;;;21.60;71.70;;;;;;4970703;28;20278;-62
2022/06/09 09:00:17;;;;;;;2.85;1.50;;;21.20;74.40;;;;;;4973699;28;20221;-62
2022/06/09 09:02:49;;;;;;;4.45;1.30;;;21.00;75.60;;;;;;4964538;28;20228;-62
2022/06/09 09:05:29;;;;;;;2.53;1.30;;;20.90;77.20;;;;;;4973448;28;20271;-67
2022/06/09 09:07:59;;;;;;;3.63;1.60;;;21.50;76.50;;;;;;4964664;28;20208;-67
2022/06/09 09:10:49;;;;;;;2.63;1.40;;;21.70;77.50;;;;;;4965658;28;20291;-68
2022/06/09 09:13:45;;;;;;;2.55;1.10;;;21.80;76.30;;;;;;4973863;28;20180;-66
2022/06/09 09:16:26;;;;;;;4.97;1.23;;;22.60;71.70;;;;;;4968382;28;20355;-65
2022/06/09 09:18:53;;;;;;;2.20;1.37;;;24.20;68.60;;;;;;4970926;28;20459;-64
2022/06/09 09:21:25;;;;;;;2.20;1.70;;;25.50;64.30;;;;;;4968161;28;20453;-64
2022/06/09 09:24:08;;;;;;;2.73;1.70;;;26.60;60.70;;;;;;4967603;28;20506;-74
2022/06/09 09:26:42;;;;;;;4.90;1.63;;;27.60;58.30;;;;;;4959452;28;20474;-75
2022/06/09 09:29:11;;;;;;;3.17;1.40;;;26.50;58.10;;;;;;4968574;28;20467;-74
2022/06/09 09:32:05;;;;;;;3.13;1.50;;;25.60;59.60;;;;;;4964977;28;20448;-72
2022/06/09 09:34:37;;;;;;;2.27;1.30;;;25.60;61.40;;;;;;4965926;28;20462;-69
2022/06/09 09:37:23;;;;;;;6.87;1.70;;;27.30;58.30;;;;;;4967936;28;20511;-71
2022/06/09 09:39:55;;;;;;;1.77;1.67;;;28.80;55.80;;;;;;4969556;28;20962;-71
2022/06/09 09:42:25;;;;;;;3.50;1.50;;;28.10;56.70;;;;;;4970981;28;20471;-71
2022/06/09 09:45:16;;;;;;;2.10;1.20;;;29.40;54.60;;;;;;4968095;28;20442;-73
2022/06/09 09:48:16;;;;;;;3.73;2.90;;;28.60;54.30;;;;;;4970682;28;20499;-70
2022/06/09 09:50:59;;;;;;;6.30;1.70;;;26.40;58.40;;;;;;4967257;28;20468;-66
2022/06/09 09:53:31;;;;;;;7.60;3.07;;;26.20;62.30;;;;;;4983200;28;20443;-68
2022/06/09 09:56:07;;;;;;;3.20;1.70;;;27.80;58.00;;;;;;4964593;28;20440;-70
2022/06/09 09:58:56;;;;;;;2.70;1.30;;;29.00;56.40;;;;;;4968913;28;20954;-72
2022/06/09 10:01:24;;;;;;;2.20;1.10;;;29.60;54.00;;;;;;4962981;28;20449;-69
2022/06/09 10:09:36;;;;;;;5.37;1.50;;;27.60;55.60;;;;;;4962145;28;20483;-73
2022/06/09 10:12:16;;;;;;;2.50;1.33;;;27.10;56.20;;;;;;4962197;28;20428;-69
2022/06/09 10:15:01;;;;;;;1.43;0.90;;;28.50;54.60;;;;;;4968396;28;20470;-67
2022/06/09 10:17:45;;;;;;;2.33;1.77;;;29.10;51.60;;;;;;4958744;28;20445;-67
2022/06/09 10:20:19;;;;;;;6.57;1.00;;;28.60;53.20;;;;;;4969911;28;20467;-68
2022/06/09 10:23:17;;;;;;;2.30;1.53;;;27.60;54.10;;;;;;4967813;28;20480;-69
2022/06/09 10:25:58;;;;;;;2.50;1.60;;;26.30;57.10;;;;;;4973746;28;20560;-64
2022/06/09 10:28:46;;;;;;;3.10;2.00;;;25.10;59.30;;;;;;4968984;28;20511;-65
2022/06/09 10:31:28;;;;;;;3.90;1.50;;;24.20;61.20;;;;;;4966579;28;20439;-63
2022/06/09 10:34:19;;;;;;;4.73;1.57;;;24.10;64.90;;;;;;4959339;28;20457;-61
2022/06/09 10:37:05;;;;;;;2.97;1.43;;;25.80;60.80;;;;;;4967808;28;20975;-61
2022/06/09 10:39:54;;;;;;;2.97;1.47;;;26.70;58.00;;;;;;4974806;28;21221;-61
2022/06/09 10:42:39;;;;;;;2.53;1.50;;;26.90;58.10;;;;;;4961245;28;20465;-68
2022/06/09 10:45:22;;;;;;;3.37;2.07;;;25.60;59.30;;;;;;4962961;28;20499;-68
2022/06/09 10:55:14;;;;;;;3.00;1.60;;;24.90;63.40;;;;;;4968273;28;20793;-76
2022/06/09 10:57:37;;;;;;;3.10;1.20;;;27.50;56.20;;;;;;4965946;28;20458;-69
2022/06/09 11:00:18;;;;;;;1.87;1.10;;;28.40;53.30;;;;;;4960766;28;20465;-73
2022/06/09 11:02:49;;;;;;;1.90;1.47;;;29.20;50.50;;;;;;4968356;28;21295;-68
2022/06/09 11:05:17;;;;;;;2.40;1.53;;;28.80;50.00;;;;;;4971061;28;20930;-69
2022/06/09 11:07:43;;;;;;;1.93;1.50;;;29.40;50.80;;;;;;4965343;28;20470;-64
2022/06/09 11:10:26;;;;;;;2.73;1.30;;;29.60;51.40;;;;;;4966712;28;20459;-67
2022/06/09 11:13:16;;;;;;;3.07;1.97;;;29.70;51.50;;;;;;4961244;28;20281;-72
2022/06/09 11:15:50;;;;;;;2.73;1.33;;;28.70;53.90;;;;;;4967609;28;20443;-69
2022/06/09 11:18:37;;;;;;;3.00;1.37;;;27.40;54.70;;;;;;4963071;28;20439;-73
2022/06/09 11:21:27;;;;;;;1.73;1.20;;;28.40;53.40;;;;;;4959918;28;20857;-71
2022/06/09 11:24:14;;;;;;;3.40;1.60;;;29.20;51.90;;;;;;4967032;28;20452;-69
2022/06/09 11:26:52;;;;;;;2.93;1.50;;;28.70;51.60;;;;;;4963878;28;20570;-70
2022/06/09 11:29:49;;;;;;;2.70;1.37;;;27.90;52.70;;;;;;4965381;28;20467;-70
2022/06/09 11:32:21;;;;;;;3.50;1.50;;;27.70;54.70;;;;;;4960690;28;20962;-68
2022/06/09 11:35:13;;;;;;;2.40;1.53;;;26.20;56.60;;;;;;4967928;28;21336;-64
2022/06/09 11:37:46;;;;;;;3.03;1.53;;;25.80;58.80;;;;;;4967690;28;20470;-65
2022/06/09 11:40:27;;;;;;;2.23;1.50;;;26.20;57.50;;;;;;4966365;28;20474;-67
2022/06/09 11:42:55;;;;;;;2.03;1.20;;;25.80;58.60;;;;;;4966692;28;20561;-72
2022/06/09 11:45:37;;;;;;;2.00;1.27;;;25.80;58.00;;;;;;4969194;28;20445;-64
2022/06/09 11:48:06;;;;;;;2.30;1.83;;;25.50;59.10;;;;;;4965278;28;20555;-65
2022/06/09 11:50:40;;;;;;;3.00;1.90;;;24.50;60.60;;;;;;4968371;28;20525;-68
2022/06/09 11:53:07;;;;;;;5.53;2.10;;;24.10;63.20;;;;;;4964278;28;20981;-65
2022/06/09 11:58:43;;;;;;;2.40;1.63;;;24.10;65.00;;;;;;4962803;28;20976;-64
2022/06/09 12:01:39;;;;;;;2.20;1.77;;;24.20;65.80;;;;;;4967915;28;20533;-65
2022/06/09 12:04:27;;;;;;;2.83;2.23;;;24.00;66.00;;;;;;4961512;28;20466;-66
2022/06/09 12:06:59;;;;;;;2.20;1.90;;;23.30;64.40;;;;;;4969272;28;20463;-67
2022/06/09 12:09:41;;;;;;;2.00;1.80;;;23.10;65.50;;;;;;4978149;28;20467;-61
2022/06/09 12:12:28;;;;;;;1.70;1.40;;;23.10;66.90;;;;;;4968410;28;21214;-61
2022/06/09 12:15:20;;;;;;;4.57;1.43;;;22.70;64.60;;;;;;4972289;28;20196;-61
2022/06/09 12:18:24;;;;;;;3.37;1.40;;;22.50;65.60;;;;;;4968727;28;20447;-61
2022/06/09 12:20:49;;;;;;;3.40;1.40;;;22.60;67.60;;;;;;4972239;28;20446;-60
2022/06/09 12:23:30;;;;;;;3.87;1.63;;;22.60;65.80;;;;;;4974408;28;20435;-60
2022/06/09 12:26:16;;;;;;;2.20;2.00;;;22.70;67.20;;;;;;4971664;28;20203;-60
2022/06/09 12:28:57;;;;;;;2.58;1.80;;;22.40;67.60;;;;;;4968983;28;20467;-60
2022/06/09 12:31:37;;;;;;;3.75;1.55;;;22.40;70.30;;;;;;4965308;28;20566;-61
2022/06/09 12:34:11;;;;;;;5.23;1.67;;;22.30;67.80;;;;;;4974476;28;20211;-61
2022/06/09 12:36:53;;;;;;;1.63;1.42;;;22.30;66.90;;;;;;4967892;28;20481;-61
2022/06/09 12:39:32;;;;;;;2.28;1.50;;;22.10;65.40;;;;;;4967679;28;20224;-60
2022/06/09 12:42:06;;;;;;;1.87;1.67;;;22.30;64.50;;;;;;4967810;28;22204;-70
2022/06/09 12:44:39;;;;;;;2.28;1.45;;;22.30;63.20;;;;;;4963649;28;20454;-61
2022/06/09 12:47:24;;;;;;;2.08;1.20;;;22.50;61.60;;;;;;4962828;28;20654;-61
2022/06/09 12:49:57;;;;;;;1.70;1.27;;;22.50;61.10;;;;;;4967917;28;20221;-61
2022/06/09 12:52:38;;;;;;;2.13;1.57;;;22.60;61.40;;;;;;4967803;28;20191;-61
2022/06/09 12:55:16;;;;;;;2.53;1.50;;;22.50;62.30;;;;;;4962920;28;20498;-61
2022/06/09 12:57:47;;;;;;;3.00;1.40;;;22.50;64.30;;;;;;4971682;28;20199;-61
2022/06/09 13:00:15;;;;;;;5.07;1.80;;;22.50;63.90;;;;;;4967790;28;20451;-61
2022/06/09 13:02:42;;;;;;;2.72;1.40;;;22.50;64.70;;;;;;4974939;28;20191;-61
2022/06/09 13:05:16;;;;;;;3.17;2.37;;;22.40;64.50;;;;;;4973733;28;20212;-61
2022/06/09 13:07:58;;;;;;;2.92;2.00;;;22.40;65.90;;;;;;4976609;28;20466;-62
2022/06/09 13:10:28;;;;;;;4.80;2.20;;;22.20;66.10;;;;;;4969348;28;20204;-61
2022/06/09 13:13:24;;;;;;;4.63;2.00;;;22.30;66.40;;;;;;4969177;28;20210;-67
2022/06/09 13:16:06;;;;;;;2.63;1.60;;;22.30;67.60;;;;;;4967379;28;20678;-67
2022/06/09 13:18:37;;;;;;;3.55;1.95;;;22.10;66.30;;;;;;4963812;28;20595;-63
2022/06/09 13:21:11;;;;;;;3.00;2.70;;;22.20;66.90;;;;;;4970198;28;20546;-64
2022/06/09 13:23:37;;;;;;;3.30;1.60;;;22.30;68.70;;;;;;4970399;28;20451;-66
2022/06/09 13:26:06;;;;;;;2.60;1.60;;;22.60;67.80;;;;;;4971870;28;20678;-64
2022/06/09 13:28:43;;;;;;;1.77;1.40;;;22.70;66.50;;;;;;4971025;28;20467;-64
2022/06/09 13:31:27;;;;;;;2.70;1.35;;;22.70;63.70;;;;;;4970415;28;20442;-65
2022/06/09 13:34:00;;;;;;;2.38;1.45;;;22.50;62.50;;;;;;4970461;28;20207;-62